Burrton, Kansas
Current Conditions -  °F | °C
As of 10:52 PM on Monday 20 Oct 2014 (Local Time) from KHUT Reporting Station
Clear Clear  
Wind Chill: 11°   Ceiling: Unl
Heat Index: 11°   Visibility: 10mi
Dew Point:   Wind: 0mph
Humidity: 77%   Direction: NA
Pressure: 30.09"   Gusts: NA
Location:  38.02°N, 97.67°W
Report Text: KHUT 210352Z AUTO 00000KT 10SM CLR 11/07 A3009 RMK AO2 SLP176 T01060067
Loading
Personal Weather Stations






























Interactive Weather Map
Tropical Storm Tracking
New forecast layout! Learn more

10-Day Weather Forecast

Advertisements
Track Severe Weather on mobile